Time;durP1;ratioP1;P1;durP2;ratioP2;P2;SDS_P1;SDS_P2;PMS_P1;PMS_P2;Temp;Humidity;BMP_temperature;BMP_pressure;BME280_temperature;BME280_humidity;BME280_pressure;Samples;Min_cycle;Max_cycle;Signal;HPM_P1;HPM_P2
2024/01/30 00:02:00;;;;;;;8.50;7.25;;;8.30;97.40;;;;;;4898328;29;20238;-76
2024/01/30 00:04:27;;;;;;;9.32;6.72;;;8.30;97.50;;;;;;4897678;29;20237;-77
2024/01/30 00:06:54;;;;;;;7.35;6.47;;;8.30;97.50;;;;;;4897245;29;20681;-77
2024/01/30 00:09:21;;;;;;;8.75;6.80;;;8.30;97.40;;;;;;4897821;29;20229;-75
2024/01/30 00:11:48;;;;;;;9.00;6.40;;;8.30;97.40;;;;;;4897137;29;20229;-75
2024/01/30 00:14:15;;;;;;;8.60;6.63;;;8.20;97.30;;;;;;4898057;29;20269;-75
2024/01/30 00:16:42;;;;;;;8.93;7.57;;;8.20;97.30;;;;;;4901199;29;20226;-76
2024/01/30 00:19:11;;;;;;;9.65;7.15;;;8.20;97.40;;;;;;4916671;29;20229;-75
2024/01/30 00:21:38;;;;;;;6.70;6.10;;;8.20;97.40;;;;;;4916063;29;20225;-75
2024/01/30 00:24:05;;;;;;;8.88;6.57;;;8.20;97.50;;;;;;4917009;29;20280;-75
2024/01/30 00:26:32;;;;;;;8.13;5.70;;;8.10;97.40;;;;;;4920219;29;20241;-75
2024/01/30 00:28:59;;;;;;;6.82;6.22;;;8.10;97.40;;;;;;4919941;29;20230;-75
2024/01/30 00:31:27;;;;;;;7.35;5.93;;;8.20;97.50;;;;;;4920753;29;20308;-77
2024/01/30 00:33:54;;;;;;;7.30;5.93;;;8.20;97.50;;;;;;4919486;29;20241;-76
2024/01/30 00:36:22;;;;;;;7.40;5.60;;;8.20;97.60;;;;;;4920225;29;20684;-77
2024/01/30 00:38:49;;;;;;;8.40;5.85;;;8.20;97.50;;;;;;4919385;29;20226;-77
2024/01/30 00:41:19;;;;;;;9.10;6.57;;;8.20;97.60;;;;;;4919990;29;20226;-76
2024/01/30 00:43:46;;;;;;;8.50;6.22;;;8.20;97.60;;;;;;4918766;29;20268;-74
2024/01/30 00:46:13;;;;;;;6.75;6.05;;;8.20;97.50;;;;;;4918389;29;20232;-75
2024/01/30 00:48:40;;;;;;;9.52;6.57;;;8.20;97.60;;;;;;4918944;29;20244;-75
2024/01/30 00:51:07;;;;;;;7.25;6.63;;;8.10;97.70;;;;;;4919863;29;20217;-75
2024/01/30 00:53:35;;;;;;;8.20;6.78;;;8.20;97.90;;;;;;4919462;29;20226;-75
2024/01/30 00:56:03;;;;;;;7.50;6.70;;;8.10;98.00;;;;;;4918285;29;20232;-77
2024/01/30 00:58:30;;;;;;;9.35;6.60;;;8.10;98.10;;;;;;4919718;29;20229;-77
2024/01/30 01:00:57;;;;;;;8.85;6.50;;;8.10;98.10;;;;;;4919189;29;20248;-77
2024/01/30 01:03:24;;;;;;;7.10;5.65;;;8.10;98.10;;;;;;4919696;29;20225;-77
2024/01/30 01:05:51;;;;;;;8.43;7.53;;;8.10;98.20;;;;;;4918940;29;20571;-75
2024/01/30 01:08:18;;;;;;;7.95;5.82;;;8.10;98.40;;;;;;4919690;29;20574;-76
2024/01/30 01:10:46;;;;;;;8.55;6.20;;;8.10;98.40;;;;;;4919026;29;20706;-75
2024/01/30 01:13:13;;;;;;;7.63;6.75;;;8.10;98.20;;;;;;4919310;29;20696;-77
2024/01/30 01:15:41;;;;;;;6.97;6.25;;;8.00;98.20;;;;;;4918747;29;20218;-76
2024/01/30 01:18:07;;;;;;;8.85;7.40;;;8.00;98.10;;;;;;4919541;29;20229;-77
2024/01/30 01:20:34;;;;;;;6.97;6.25;;;8.00;98.00;;;;;;4919141;29;20225;-77
2024/01/30 01:23:02;;;;;;;9.82;6.70;;;8.00;98.00;;;;;;4918586;29;20264;-75
2024/01/30 01:25:30;;;;;;;8.13;6.40;;;8.00;98.10;;;;;;4919389;29;20568;-75
2024/01/30 01:27:58;;;;;;;8.07;6.43;;;8.00;98.00;;;;;;4918769;29;20229;-75
2024/01/30 01:30:25;;;;;;;7.32;6.35;;;8.00;98.10;;;;;;4919275;29;20684;-77
2024/01/30 01:32:56;;;;;;;9.60;7.53;;;8.00;98.10;;;;;;4918748;29;20293;-76
2024/01/30 01:35:24;;;;;;;10.80;7.50;;;8.00;98.10;;;;;;4918910;29;20225;-77
2024/01/30 01:37:54;;;;;;;8.90;7.03;;;8.00;98.10;;;;;;4918225;29;20289;-75
2024/01/30 01:40:23;;;;;;;8.85;7.22;;;8.00;98.10;;;;;;4919009;29;20226;-75
2024/01/30 01:42:52;;;;;;;9.40;8.00;;;8.00;98.10;;;;;;4918007;29;20308;-77
2024/01/30 01:45:23;;;;;;;8.80;6.65;;;8.00;98.00;;;;;;4918967;29;20229;-75
2024/01/30 01:47:52;;;;;;;8.95;7.15;;;8.00;98.10;;;;;;4918449;29;20229;-77
2024/01/30 01:50:21;;;;;;;8.25;7.40;;;7.90;98.00;;;;;;4918706;29;20229;-77
2024/01/30 01:52:49;;;;;;;7.50;6.75;;;7.90;98.00;;;;;;4918149;29;20237;-77
2024/01/30 01:55:21;;;;;;;9.18;7.80;;;7.90;98.00;;;;;;4918909;29;20284;-75
2024/01/30 01:57:49;;;;;;;11.60;7.03;;;7.90;98.10;;;;;;4917928;29;20226;-76
2024/01/30 02:00:20;;;;;;;8.65;6.82;;;7.90;98.00;;;;;;4918986;29;20240;-76
2024/01/30 02:02:50;;;;;;;10.18;7.07;;;7.90;98.00;;;;;;4918096;29;20235;-77
2024/01/30 02:05:18;;;;;;;8.70;7.60;;;7.80;98.00;;;;;;4918647;29;20221;-75
2024/01/30 02:07:45;;;;;;;9.50;7.15;;;7.80;98.10;;;;;;4918064;29;20225;-75
2024/01/30 02:10:12;;;;;;;7.32;6.55;;;7.80;98.10;;;;;;4918436;29;20222;-75
2024/01/30 02:12:39;;;;;;;10.07;7.85;;;7.80;98.10;;;;;;4918515;29;20309;-75
2024/01/30 02:15:07;;;;;;;9.95;7.40;;;7.80;98.20;;;;;;4918158;29;20221;-77
2024/01/30 02:17:34;;;;;;;10.02;6.70;;;7.70;98.10;;;;;;4918283;29;20269;-77
2024/01/30 02:20:05;;;;;;;7.15;6.35;;;7.70;98.20;;;;;;4917832;29;20226;-77
2024/01/30 02:22:35;;;;;;;9.60;7.43;;;7.70;98.30;;;;;;4918047;29;20233;-75
2024/01/30 02:25:02;;;;;;;8.38;7.53;;;7.70;98.40;;;;;;4917773;29;20229;-77
2024/01/30 02:27:29;;;;;;;8.20;6.53;;;7.70;98.40;;;;;;4918302;29;20279;-77
2024/01/30 02:29:56;;;;;;;9.18;7.57;;;7.60;98.40;;;;;;4917724;29;20571;-75
2024/01/30 02:32:23;;;;;;;6.70;5.95;;;7.60;98.40;;;;;;4918024;29;20237;-75
2024/01/30 02:34:50;;;;;;;10.95;6.82;;;7.60;98.40;;;;;;4917530;29;20289;-77
2024/01/30 02:37:18;;;;;;;14.40;7.95;;;7.50;98.40;;;;;;4917556;29;20228;-76
2024/01/30 02:39:47;;;;;;;12.30;7.55;;;7.50;98.50;;;;;;4918104;29;20225;-76
2024/01/30 02:42:13;;;;;;;8.73;7.85;;;7.50;98.50;;;;;;4917458;29;20624;-75
2024/01/30 02:44:40;;;;;;;12.27;7.60;;;7.50;98.60;;;;;;4917743;29;20321;-77
2024/01/30 02:47:07;;;;;;;9.85;7.18;;;7.50;98.70;;;;;;4916624;29;20572;-75
2024/01/30 02:49:34;;;;;;;9.38;8.00;;;7.50;98.80;;;;;;4917945;29;20241;-75
2024/01/30 02:52:01;;;;;;;8.43;7.10;;;7.40;98.90;;;;;;4917190;29;20308;-75
2024/01/30 02:54:28;;;;;;;9.45;7.40;;;7.40;98.90;;;;;;4917714;29;20230;-75
2024/01/30 02:56:56;;;;;;;10.25;7.70;;;7.40;99.00;;;;;;4917249;29;20226;-77
2024/01/30 02:59:23;;;;;;;10.93;6.70;;;7.40;99.10;;;;;;4917632;29;20691;-75
2024/01/30 03:01:50;;;;;;;8.80;6.80;;;7.40;99.10;;;;;;4917662;29;20282;-75
2024/01/30 03:04:17;;;;;;;7.20;6.18;;;7.40;99.10;;;;;;4917343;29;20226;-75
2024/01/30 03:06:47;;;;;;;14.18;9.00;;;7.40;99.30;;;;;;4917580;29;20226;-77
2024/01/30 03:09:15;;;;;;;8.35;7.18;;;7.40;99.30;;;;;;4917326;29;20362;-75
2024/01/30 03:11:42;;;;;;;8.63;7.70;;;7.50;99.30;;;;;;4917586;29;20225;-75
2024/01/30 03:14:11;;;;;;;10.35;8.27;;;7.50;99.30;;;;;;4916839;29;20692;-77
2024/01/30 03:16:39;;;;;;;12.38;8.13;;;7.50;99.30;;;;;;4917779;29;20229;-77
2024/01/30 03:19:08;;;;;;;13.32;7.72;;;7.50;99.30;;;;;;4916820;29;20296;-77
2024/01/30 03:21:36;;;;;;;10.10;8.20;;;7.50;99.30;;;;;;4917377;29;20241;-77
2024/01/30 03:24:03;;;;;;;13.82;8.77;;;7.50;99.40;;;;;;4916933;29;20237;-75
2024/01/30 03:26:30;;;;;;;10.98;7.80;;;7.40;99.30;;;;;;4917420;29;20266;-75
2024/01/30 03:28:57;;;;;;;9.68;7.20;;;7.40;99.40;;;;;;4916346;29;20229;-77
2024/01/30 03:31:29;;;;;;;8.75;7.55;;;7.40;99.50;;;;;;4917546;29;20225;-76
2024/01/30 03:33:56;;;;;;;9.85;7.45;;;7.40;99.50;;;;;;4916631;29;20236;-75
2024/01/30 03:36:23;;;;;;;8.15;6.57;;;7.40;99.50;;;;;;4917141;29;20225;-77
2024/01/30 03:38:50;;;;;;;13.00;7.60;;;7.40;99.50;;;;;;4917332;29;20229;-77
2024/01/30 03:41:17;;;;;;;10.27;7.47;;;7.40;99.60;;;;;;4916519;29;20723;-76
2024/01/30 03:43:44;;;;;;;11.45;7.28;;;7.30;99.50;;;;;;4916796;29;20711;-74
2024/01/30 03:46:13;;;;;;;15.25;7.75;;;7.40;99.60;;;;;;4916543;29;20236;-75
2024/01/30 03:48:41;;;;;;;8.07;6.70;;;7.40;99.70;;;;;;4917295;29;20316;-76
2024/01/30 03:51:08;;;;;;;8.95;7.32;;;7.30;99.60;;;;;;4916215;29;20237;-75
2024/01/30 03:53:36;;;;;;;10.57;8.25;;;7.30;99.60;;;;;;4916810;29;20240;-74
2024/01/30 03:56:03;;;;;;;9.00;7.03;;;7.30;99.70;;;;;;4916339;29;20265;-75
2024/01/30 03:58:30;;;;;;;7.22;6.50;;;7.30;99.70;;;;;;4916766;29;20242;-76
2024/01/30 04:00:57;;;;;;;8.77;7.13;;;7.30;99.80;;;;;;4920614;29;20257;-75
2024/01/30 04:03:24;;;;;;;10.98;8.63;;;7.30;99.80;;;;;;4920798;29;20584;-76
2024/01/30 04:05:53;;;;;;;9.82;7.82;;;7.30;99.90;;;;;;4920645;29;20224;-74
2024/01/30 04:08:20;;;;;;;10.45;7.78;;;7.30;99.90;;;;;;4920444;29;20225;-75
2024/01/30 04:10:47;;;;;;;8.55;6.80;;;7.30;99.90;;;;;;4920663;29;20229;-74
2024/01/30 04:13:14;;;;;;;8.48;7.00;;;7.30;99.90;;;;;;4919929;29;20233;-74
2024/01/30 04:15:41;;;;;;;10.40;8.15;;;7.30;99.90;;;;;;4920625;29;20231;-74
2024/01/30 04:18:08;;;;;;;8.05;6.95;;;7.30;99.90;;;;;;4919971;29;20260;-74
2024/01/30 04:20:37;;;;;;;9.15;7.30;;;7.30;99.90;;;;;;4920247;29;20225;-75
2024/01/30 04:23:05;;;;;;;10.13;7.72;;;7.30;99.90;;;;;;4919898;29;20241;-75
2024/01/30 04:25:33;;;;;;;8.40;7.22;;;7.30;99.90;;;;;;4920299;29;20245;-75
2024/01/30 04:27:59;;;;;;;8.85;7.53;;;7.30;99.90;;;;;;4919624;29;20232;-75
2024/01/30 04:30:27;;;;;;;8.15;7.32;;;7.30;99.90;;;;;;4920267;29;20249;-76
2024/01/30 04:32:54;;;;;;;8.70;7.28;;;7.30;99.90;;;;;;4920262;29;20317;-77
2024/01/30 04:35:24;;;;;;;8.95;7.63;;;7.20;99.90;;;;;;4919573;29;20240;-77
2024/01/30 04:37:53;;;;;;;9.35;7.80;;;7.20;99.90;;;;;;4920214;29;20277;-77
2024/01/30 04:40:22;;;;;;;12.20;7.65;;;7.20;99.90;;;;;;4919461;29;20244;-75
2024/01/30 04:42:49;;;;;;;10.00;8.23;;;7.20;99.90;;;;;;4919488;29;20240;-75
2024/01/30 04:45:16;;;;;;;9.25;6.63;;;7.20;99.90;;;;;;4919730;29;20229;-75
2024/01/30 04:47:43;;;;;;;8.50;7.55;;;7.20;99.90;;;;;;4919973;29;20225;-77
2024/01/30 04:50:11;;;;;;;7.90;7.10;;;7.20;99.90;;;;;;4919177;29;20236;-77
2024/01/30 04:52:38;;;;;;;9.15;7.93;;;7.30;99.90;;;;;;4919893;29;20281;-75
2024/01/30 04:55:05;;;;;;;8.50;7.00;;;7.30;99.90;;;;;;4919437;29;20225;-75
2024/01/30 04:57:33;;;;;;;9.77;7.70;;;7.30;99.90;;;;;;4919814;29;20217;-77
2024/01/30 05:00:00;;;;;;;9.40;8.40;;;7.30;99.90;;;;;;4919679;29;20603;-77
2024/01/30 05:02:28;;;;;;;8.10;7.32;;;7.30;99.90;;;;;;4919110;29;20249;-77
2024/01/30 05:04:55;;;;;;;9.68;7.50;;;7.30;99.90;;;;;;4919701;29;20244;-77
2024/01/30 05:07:22;;;;;;;7.78;6.97;;;7.30;99.90;;;;;;4919451;29;20281;-77
2024/01/30 05:09:49;;;;;;;10.43;6.93;;;7.30;99.90;;;;;;4918737;29;20272;-77
2024/01/30 05:12:16;;;;;;;9.50;7.95;;;7.30;99.90;;;;;;4918599;29;20229;-77
2024/01/30 05:14:44;;;;;;;8.68;7.22;;;7.30;99.90;;;;;;4919408;29;20245;-75
2024/01/30 05:17:12;;;;;;;11.32;8.00;;;7.30;99.90;;;;;;4918547;29;20578;-75
2024/01/30 05:19:39;;;;;;;9.10;7.50;;;7.30;99.90;;;;;;4919661;29;20668;-75
2024/01/30 05:22:07;;;;;;;10.18;7.10;;;7.30;99.90;;;;;;4918770;29;20230;-75
2024/01/30 05:24:34;;;;;;;8.75;6.68;;;7.40;99.90;;;;;;4919263;29;20316;-75
2024/01/30 05:27:01;;;;;;;8.27;6.93;;;7.30;99.90;;;;;;4919410;29;20229;-75
2024/01/30 05:29:28;;;;;;;10.82;8.02;;;7.30;99.90;;;;;;4918747;29;20304;-77
2024/01/30 05:31:57;;;;;;;8.27;6.97;;;7.40;99.90;;;;;;4919106;29;20809;-77
2024/01/30 05:34:24;;;;;;;11.48;7.07;;;7.40;99.90;;;;;;4918240;29;20234;-77
2024/01/30 05:36:50;;;;;;;8.88;6.78;;;7.30;99.90;;;;;;4919011;29;20253;-77
2024/01/30 05:39:18;;;;;;;9.38;7.80;;;7.30;99.90;;;;;;4918631;29;20233;-77
2024/01/30 05:41:45;;;;;;;7.78;6.90;;;7.30;99.90;;;;;;4919273;29;20229;-77
2024/01/30 05:44:12;;;;;;;7.80;6.93;;;7.30;99.90;;;;;;4918307;29;20230;-77
2024/01/30 05:46:42;;;;;;;7.85;6.28;;;7.40;99.90;;;;;;4918305;29;20308;-75
2024/01/30 05:49:11;;;;;;;8.73;7.13;;;7.40;99.90;;;;;;4918663;29;20229;-75
2024/01/30 05:51:37;;;;;;;9.68;7.78;;;7.40;99.90;;;;;;4918924;29;20571;-75
2024/01/30 05:54:05;;;;;;;9.73;7.13;;;7.40;99.90;;;;;;4918963;29;20230;-77
2024/01/30 05:56:32;;;;;;;9.45;7.70;;;7.40;99.90;;;;;;4918528;29;20236;-77
2024/01/30 05:58:59;;;;;;;8.88;6.85;;;7.40;99.90;;;;;;4919216;29;20233;-77
2024/01/30 06:01:26;;;;;;;8.77;6.55;;;7.30;99.90;;;;;;4918233;29;20263;-77
2024/01/30 06:03:52;;;;;;;9.98;7.40;;;7.40;99.90;;;;;;4918617;29;20241;-77
2024/01/30 06:06:24;;;;;;;13.93;7.57;;;7.30;99.90;;;;;;4917545;29;20229;-75
2024/01/30 06:08:51;;;;;;;10.00;7.28;;;7.40;99.90;;;;;;4918679;29;20555;-74
2024/01/30 06:11:22;;;;;;;8.93;7.40;;;7.40;99.90;;;;;;4917720;29;20722;-77
2024/01/30 06:13:49;;;;;;;8.65;7.57;;;7.30;99.90;;;;;;4918102;29;20285;-76
2024/01/30 06:16:16;;;;;;;9.80;6.50;;;7.30;99.90;;;;;;4918175;29;20229;-75
2024/01/30 06:18:43;;;;;;;10.13;7.50;;;7.30;99.90;;;;;;4918507;29;20233;-75
2024/01/30 06:21:10;;;;;;;11.55;8.15;;;7.30;99.90;;;;;;4917313;29;20226;-75
2024/01/30 06:23:38;;;;;;;8.65;7.35;;;7.30;99.90;;;;;;4917687;29;20226;-75
2024/01/30 06:26:08;;;;;;;9.80;8.32;;;7.30;99.90;;;;;;4918193;29;20308;-77
2024/01/30 06:28:35;;;;;;;9.93;7.53;;;7.30;99.90;;;;;;4917784;29;20233;-74
2024/01/30 06:31:02;;;;;;;9.40;7.80;;;7.30;99.90;;;;;;4917971;29;20706;-74
2024/01/30 06:33:30;;;;;;;8.48;7.43;;;7.30;99.90;;;;;;4917657;29;20236;-75
2024/01/30 06:35:57;;;;;;;8.07;7.18;;;7.30;99.90;;;;;;4917932;29;20245;-76
2024/01/30 06:38:24;;;;;;;9.10;7.57;;;7.30;99.90;;;;;;4907374;29;20270;-75
2024/01/30 06:40:52;;;;;;;8.85;7.60;;;7.40;99.90;;;;;;4917873;29;20229;-74
2024/01/30 06:43:19;;;;;;;11.05;8.02;;;7.40;99.90;;;;;;4906982;29;20248;-77
2024/01/30 06:45:48;;;;;;;8.25;7.32;;;7.40;99.90;;;;;;4917375;29;20535;-77
2024/01/30 06:48:15;;;;;;;9.25;8.13;;;7.40;99.90;;;;;;4917598;29;20257;-77
2024/01/30 06:50:42;;;;;;;8.02;7.20;;;7.40;99.90;;;;;;4917330;29;20259;-77
2024/01/30 06:53:09;;;;;;;11.52;8.52;;;7.40;99.90;;;;;;4917782;29;20237;-77
2024/01/30 06:55:36;;;;;;;8.20;7.35;;;7.40;99.90;;;;;;4917252;29;20234;-78
2024/01/30 06:58:05;;;;;;;10.73;8.60;;;7.40;99.90;;;;;;4917052;29;20736;-78
2024/01/30 07:00:36;;;;;;;12.20;7.30;;;7.40;99.90;;;;;;4917704;29;20225;-78
2024/01/30 07:03:03;;;;;;;12.60;8.43;;;7.40;99.90;;;;;;4916874;29;20316;-78
2024/01/30 07:05:30;;;;;;;12.85;8.48;;;7.40;99.90;;;;;;4917526;29;20300;-78
2024/01/30 07:07:57;;;;;;;11.77;8.30;;;7.40;99.90;;;;;;4917695;29;20221;-78
2024/01/30 07:10:24;;;;;;;11.32;9.68;;;7.40;99.90;;;;;;4907930;29;20293;-78
2024/01/30 07:12:51;;;;;;;12.98;7.70;;;7.30;99.90;;;;;;4917284;29;20221;-78
2024/01/30 07:15:20;;;;;;;10.40;8.07;;;7.30;99.90;;;;;;4908566;29;20237;-78
2024/01/30 07:17:47;;;;;;;12.02;9.00;;;7.30;99.90;;;;;;4917323;29;20232;-78
2024/01/30 07:20:14;;;;;;;10.73;8.40;;;7.30;99.90;;;;;;4916749;29;20316;-77
2024/01/30 07:22:45;;;;;;;10.88;9.10;;;7.20;99.90;;;;;;4907492;29;20237;-77
2024/01/30 07:25:13;;;;;;;9.25;8.18;;;7.20;99.90;;;;;;4915329;29;20620;-75
2024/01/30 07:27:40;;;;;;;11.48;7.65;;;7.20;99.90;;;;;;4917455;29;20238;-77
2024/01/30 07:30:11;;;;;;;10.32;8.40;;;7.20;99.90;;;;;;4917269;29;20229;-77
2024/01/30 07:32:40;;;;;;;11.27;8.82;;;7.20;99.90;;;;;;4916560;29;20267;-77
2024/01/30 07:35:08;;;;;;;10.73;8.90;;;7.20;99.90;;;;;;4917114;29;20406;-77
2024/01/30 07:37:35;;;;;;;12.50;8.40;;;7.20;99.90;;;;;;4916901;29;20620;-77
2024/01/30 07:40:03;;;;;;;8.98;8.05;;;7.30;99.90;;;;;;4916982;29;20229;-77
2024/01/30 07:42:30;;;;;;;9.02;7.50;;;7.30;99.90;;;;;;4916258;29;20261;-77
2024/01/30 07:44:57;;;;;;;12.68;7.57;;;7.30;99.90;;;;;;4917123;29;20233;-77
2024/01/30 07:47:24;;;;;;;12.48;8.88;;;7.30;99.90;;;;;;4916541;29;20680;-77
2024/01/30 07:49:54;;;;;;;13.60;10.00;;;7.40;99.90;;;;;;4916933;29;20240;-78
2024/01/30 07:52:21;;;;;;;10.43;8.55;;;7.30;99.90;;;;;;4916544;29;20688;-77
2024/01/30 07:54:48;;;;;;;11.10;9.55;;;7.40;99.90;;;;;;4916290;29;20316;-77
2024/01/30 07:57:15;;;;;;;10.65;8.05;;;7.40;99.90;;;;;;4916814;29;20225;-77
2024/01/30 07:59:45;;;;;;;12.45;9.85;;;7.50;99.90;;;;;;4906595;29;20225;-77
2024/01/30 08:02:13;;;;;;;11.10;8.35;;;7.50;99.90;;;;;;4916280;29;20261;-77
2024/01/30 08:04:40;;;;;;;11.75;9.45;;;7.50;99.90;;;;;;4916101;29;20244;-77
2024/01/30 08:07:11;;;;;;;13.05;8.82;;;7.50;99.90;;;;;;4917222;29;20312;-77
2024/01/30 08:09:38;;;;;;;11.90;9.82;;;7.60;99.90;;;;;;4906242;29;20278;-76
2024/01/30 08:12:06;;;;;;;15.52;9.07;;;7.60;99.90;;;;;;4916809;29;20229;-76
2024/01/30 08:14:35;;;;;;;10.23;9.23;;;7.60;99.90;;;;;;4916295;29;20249;-76
2024/01/30 08:17:07;;;;;;;10.45;8.68;;;7.60;99.90;;;;;;4916691;29;20225;-75
2024/01/30 08:19:34;;;;;;;14.00;8.75;;;7.70;99.90;;;;;;4916333;29;20294;-78
2024/01/30 08:22:04;;;;;;;9.90;8.88;;;7.70;99.90;;;;;;4917039;29;20240;-75
2024/01/30 08:24:32;;;;;;;10.05;8.43;;;7.70;99.90;;;;;;4915576;29;20237;-76
2024/01/30 08:27:01;;;;;;;11.95;8.73;;;7.70;99.90;;;;;;4916832;29;20239;-76
2024/01/30 08:29:30;;;;;;;10.88;8.93;;;7.80;99.90;;;;;;4916681;29;20237;-75
2024/01/30 08:31:59;;;;;;;10.68;7.90;;;7.80;99.90;;;;;;4916898;29;20296;-75
2024/01/30 08:34:26;;;;;;;12.05;9.07;;;7.80;99.90;;;;;;4906293;29;20233;-77
2024/01/30 08:36:53;;;;;;;11.00;9.82;;;7.80;99.90;;;;;;4916145;29;20229;-77
2024/01/30 08:39:22;;;;;;;15.13;10.60;;;7.90;99.90;;;;;;4916813;29;20233;-77
2024/01/30 08:41:51;;;;;;;11.35;9.50;;;7.90;99.90;;;;;;4915942;29;20707;-75
2024/01/30 08:44:18;;;;;;;10.13;8.13;;;7.90;99.90;;;;;;4916577;29;20555;-76
2024/01/30 08:46:45;;;;;;;14.45;10.10;;;7.90;99.90;;;;;;4919104;29;20234;-75
2024/01/30 08:49:13;;;;;;;11.75;9.05;;;7.90;99.90;;;;;;4919840;29;20316;-75
2024/01/30 08:51:42;;;;;;;11.70;9.10;;;7.90;99.90;;;;;;4918849;29;20263;-76
2024/01/30 08:54:09;;;;;;;15.38;10.15;;;8.00;99.90;;;;;;4919798;29;20276;-76
2024/01/30 08:56:36;;;;;;;11.90;8.85;;;8.00;99.90;;;;;;4919524;29;20244;-77
2024/01/30 08:59:05;;;;;;;13.88;9.98;;;8.00;99.90;;;;;;4919857;29;20317;-75
2024/01/30 09:01:32;;;;;;;11.05;9.85;;;8.00;99.90;;;;;;4919266;29;20230;-75
2024/01/30 09:03:59;;;;;;;12.82;9.30;;;8.10;99.90;;;;;;4919437;29;20256;-75
2024/01/30 09:06:28;;;;;;;12.77;9.95;;;8.10;99.90;;;;;;4919469;29;20236;-75
2024/01/30 09:08:55;;;;;;;9.98;8.30;;;8.10;99.90;;;;;;4918495;29;20237;-77
2024/01/30 09:11:22;;;;;;;10.88;9.15;;;8.20;99.90;;;;;;4919352;29;20237;-77
2024/01/30 09:13:49;;;;;;;12.60;10.00;;;8.20;99.90;;;;;;4918817;29;20226;-75
2024/01/30 09:16:18;;;;;;;14.88;10.63;;;8.30;99.90;;;;;;4909842;29;20230;-75
2024/01/30 09:18:45;;;;;;;11.25;10.05;;;8.40;99.90;;;;;;4908779;29;20589;-75
2024/01/30 09:21:12;;;;;;;16.75;11.98;;;8.40;99.90;;;;;;4918623;29;20225;-75
2024/01/30 09:23:39;;;;;;;12.27;10.98;;;8.40;99.90;;;;;;4917924;29;20240;-76
2024/01/30 09:26:06;;;;;;;12.32;10.18;;;8.50;99.90;;;;;;4909606;29;20233;-75
2024/01/30 09:28:33;;;;;;;10.48;9.38;;;8.60;99.90;;;;;;4918801;29;20225;-75
2024/01/30 09:31:08;;;;;;;12.07;9.30;;;8.60;99.80;;;;;;4918555;29;20321;-77
2024/01/30 09:33:37;;;;;;;9.45;7.63;;;8.60;99.60;;;;;;4918982;29;20225;-77
2024/01/30 09:36:04;;;;;;;20.40;9.02;;;8.70;99.60;;;;;;4918614;29;20679;-77
2024/01/30 09:38:34;;;;;;;15.77;9.20;;;8.70;99.60;;;;;;4918747;29;20229;-77
2024/01/30 09:41:07;;;;;;;17.75;13.02;;;8.80;99.60;;;;;;4918635;29;20320;-77
2024/01/30 09:43:35;;;;;;;10.52;9.13;;;8.80;99.50;;;;;;4918097;29;20245;-77
2024/01/30 09:46:04;;;;;;;10.45;8.50;;;8.90;99.50;;;;;;4917934;29;20226;-79
2024/01/30 09:48:32;;;;;;;9.80;8.57;;;8.90;99.30;;;;;;4918696;29;20232;-78
2024/01/30 09:51:00;;;;;;;11.88;8.35;;;8.90;99.30;;;;;;4907417;29;20372;-77
2024/01/30 09:53:27;;;;;;;9.75;8.30;;;9.00;99.30;;;;;;4918668;29;20230;-77
2024/01/30 09:55:54;;;;;;;8.93;7.60;;;9.00;99.20;;;;;;4917352;29;20233;-77
2024/01/30 09:58:23;;;;;;;10.85;8.32;;;9.10;99.00;;;;;;4918609;29;20221;-77
2024/01/30 10:00:50;;;;;;;11.50;7.22;;;9.10;99.10;;;;;;4917867;29;20240;-78
2024/01/30 10:03:19;;;;;;;11.98;7.68;;;9.10;98.80;;;;;;4918666;29;20233;-76
2024/01/30 10:05:51;;;;;;;9.82;7.95;;;9.10;98.70;;;;;;4918192;29;20229;-75
2024/01/30 10:08:21;;;;;;;11.10;9.18;;;9.10;98.50;;;;;;4918220;29;20228;-78
2024/01/30 10:10:49;;;;;;;10.20;7.97;;;9.20;98.70;;;;;;4918020;29;20225;-77
2024/01/30 10:13:17;;;;;;;9.93;6.90;;;9.20;98.50;;;;;;4918035;29;20229;-77
2024/01/30 10:15:44;;;;;;;11.02;7.90;;;9.20;98.30;;;;;;4917708;29;20229;-76
2024/01/30 10:18:14;;;;;;;9.52;8.30;;;9.20;98.20;;;;;;4918066;29;20650;-76
2024/01/30 10:20:44;;;;;;;15.38;7.22;;;9.20;98.10;;;;;;4918591;29;20221;-76
2024/01/30 10:23:11;;;;;;;9.35;7.80;;;9.30;98.00;;;;;;4917697;29;20237;-76
2024/01/30 10:25:40;;;;;;;8.30;7.00;;;9.30;97.90;;;;;;4918017;29;20241;-77
2024/01/30 10:28:08;;;;;;;7.32;6.47;;;9.30;97.60;;;;;;4918063;29;20245;-76
2024/01/30 10:30:35;;;;;;;7.50;6.70;;;9.40;97.50;;;;;;4918520;29;20233;-75
2024/01/30 10:33:03;;;;;;;9.85;7.50;;;9.40;97.30;;;;;;4908948;29;20561;-75
2024/01/30 10:35:35;;;;;;;9.43;7.30;;;9.40;97.00;;;;;;4918228;29;20233;-75
2024/01/30 10:38:02;;;;;;;11.00;7.20;;;9.40;97.00;;;;;;4908634;29;20225;-76
2024/01/30 10:40:31;;;;;;;7.25;6.55;;;9.50;96.80;;;;;;4917982;29;20326;-75
2024/01/30 10:43:03;;;;;;;13.00;8.38;;;9.50;96.80;;;;;;4917443;29;20252;-76
2024/01/30 10:45:31;;;;;;;12.68;7.10;;;9.50;96.70;;;;;;4917646;29;20243;-77
2024/01/30 10:48:01;;;;;;;8.40;6.55;;;9.50;96.80;;;;;;4918558;29;20229;-78
2024/01/30 10:50:28;;;;;;;10.63;7.13;;;9.60;96.80;;;;;;4917123;29;20229;-77
2024/01/30 10:52:57;;;;;;;7.90;6.38;;;9.70;96.90;;;;;;4917633;29;20237;-76
2024/01/30 10:55:24;;;;;;;9.98;6.75;;;9.70;96.80;;;;;;4917330;29;20245;-77
2024/01/30 10:57:56;;;;;;;7.47;6.65;;;9.80;96.90;;;;;;4918071;29;20229;-77
2024/01/30 11:00:28;;;;;;;7.68;6.82;;;9.80;96.70;;;;;;4917361;29;20244;-77
2024/01/30 11:02:56;;;;;;;17.15;8.18;;;9.90;96.80;;;;;;4917884;29;20569;-76
2024/01/30 11:05:27;;;;;;;9.30;7.22;;;9.90;96.80;;;;;;4916584;29;20241;-75
2024/01/30 11:07:54;;;;;;;8.02;6.43;;;9.90;96.70;;;;;;4917300;29;20237;-77
2024/01/30 11:10:21;;;;;;;7.68;6.65;;;10.00;96.20;;;;;;4917085;29;20245;-77
2024/01/30 11:12:51;;;;;;;8.68;7.43;;;10.00;96.20;;;;;;4907574;29;20233;-77
2024/01/30 11:15:18;;;;;;;7.93;6.85;;;10.00;96.00;;;;;;4916034;29;20233;-76
2024/01/30 11:17:52;;;;;;;10.32;7.80;;;10.00;95.80;;;;;;4917249;29;20229;-77
2024/01/30 11:20:22;;;;;;;11.68;9.40;;;10.00;95.80;;;;;;4907335;29;20229;-77
2024/01/30 11:22:51;;;;;;;9.68;7.95;;;10.00;95.70;;;;;;4916614;29;20233;-77
2024/01/30 11:25:21;;;;;;;11.57;8.23;;;10.00;95.80;;;;;;4917014;29;20244;-77
2024/01/30 11:27:51;;;;;;;8.50;7.60;;;10.10;96.00;;;;;;4917360;29;20569;-77
2024/01/30 11:30:25;;;;;;;9.45;6.65;;;10.20;96.10;;;;;;4916256;29;20225;-77
2024/01/30 11:33:06;;;;;;;9.38;7.15;;;10.20;96.20;;;;;;4917204;29;20233;-75
2024/01/30 11:35:39;;;;;;;8.05;7.00;;;10.20;96.10;;;;;;4916305;29;20324;-75
2024/01/30 11:38:07;;;;;;;9.50;7.28;;;10.20;95.80;;;;;;4916965;29;20229;-77
2024/01/30 11:40:35;;;;;;;8.07;7.32;;;10.20;96.00;;;;;;4916628;29;20255;-77
2024/01/30 11:43:05;;;;;;;7.90;6.47;;;10.20;96.10;;;;;;4916938;29;20241;-76
2024/01/30 11:45:32;;;;;;;9.07;7.93;;;10.30;96.20;;;;;;4917457;29;20292;-75
2024/01/30 11:48:03;;;;;;;12.57;7.80;;;10.30;96.20;;;;;;4917043;29;20254;-75
2024/01/30 11:50:31;;;;;;;7.68;6.15;;;10.30;95.90;;;;;;4907173;29;20719;-75
2024/01/30 11:53:00;;;;;;;8.55;6.88;;;10.30;95.90;;;;;;4917043;29;20316;-75
2024/01/30 11:55:27;;;;;;;10.60;8.00;;;10.30;96.10;;;;;;4916597;29;20233;-75
2024/01/30 11:57:56;;;;;;;12.98;7.30;;;10.30;95.80;;;;;;4916934;29;20686;-75
2024/01/30 12:00:23;;;;;;;9.05;6.22;;;10.40;95.80;;;;;;4916573;29;20229;-75
2024/01/30 12:02:51;;;;;;;13.07;8.02;;;10.40;95.80;;;;;;4916821;29;20234;-75
2024/01/30 12:05:20;;;;;;;8.88;6.85;;;10.40;95.90;;;;;;4916844;29;20247;-75
2024/01/30 12:07:48;;;;;;;7.95;6.20;;;10.50;95.90;;;;;;4916548;29;20277;-75
2024/01/30 12:10:16;;;;;;;7.35;6.65;;;10.50;95.90;;;;;;4916715;29;20233;-75
2024/01/30 12:12:45;;;;;;;7.22;6.53;;;10.60;95.60;;;;;;4916349;29;20381;-75
2024/01/30 12:15:12;;;;;;;12.27;7.13;;;10.60;95.60;;;;;;4916651;29;20688;-75
2024/01/30 12:17:39;;;;;;;10.50;7.63;;;10.70;95.70;;;;;;4916142;29;20316;-76
2024/01/30 12:20:09;;;;;;;16.00;10.30;;;10.70;95.70;;;;;;4917366;29;20570;-75
2024/01/30 12:22:41;;;;;;;12.15;9.65;;;10.70;95.30;;;;;;4920015;29;20237;-76
2024/01/30 12:25:14;;;;;;;13.73;8.52;;;10.70;95.30;;;;;;4919862;29;20241;-75
2024/01/30 12:27:43;;;;;;;9.45;8.13;;;10.70;95.60;;;;;;4919782;29;20229;-75
2024/01/30 12:30:11;;;;;;;9.50;6.63;;;10.70;95.60;;;;;;4920105;29;20240;-75
2024/01/30 12:32:40;;;;;;;7.45;6.57;;;10.70;95.70;;;;;;4919689;29;20245;-76
2024/01/30 12:35:09;;;;;;;10.80;7.00;;;10.80;95.80;;;;;;4920072;29;20225;-75
2024/01/30 12:37:36;;;;;;;8.32;7.53;;;10.90;95.70;;;;;;4910529;29;20292;-75
2024/01/30 12:40:03;;;;;;;10.63;7.20;;;10.90;95.80;;;;;;4918745;29;20225;-76
2024/01/30 12:42:32;;;;;;;10.07;6.97;;;10.90;95.50;;;;;;4919110;29;20409;-76
2024/01/30 12:44:59;;;;;;;11.77;7.90;;;10.90;95.50;;;;;;4920058;29;20320;-75
2024/01/30 12:47:27;;;;;;;9.30;7.88;;;11.00;95.60;;;;;;4919864;29;20260;-75
2024/01/30 12:49:54;;;;;;;14.38;8.73;;;11.00;95.60;;;;;;4919464;29;20682;-75
2024/01/30 12:52:22;;;;;;;12.20;8.82;;;10.90;95.50;;;;;;4919830;29;20234;-75
2024/01/30 12:54:51;;;;;;;10.98;8.40;;;10.90;95.50;;;;;;4919216;29;20579;-77